sensor_id;sensor_type;location;lat;lon;timestamp;pressure;altitude;pressure_sealevel;temperature;humidity
49297;BME280;35163;48.878;18.040;2023-07-31T00:01:38;98170.94;;;19.04;91.49
49297;BME280;35163;48.878;18.040;2023-07-31T00:04:05;98165.59;;;19.06;91.00
49297;BME280;35163;48.878;18.040;2023-07-31T00:06:31;98167.19;;;19.09;90.85
49297;BME280;35163;48.878;18.040;2023-07-31T00:08:58;98177.53;;;19.10;90.35
49297;BME280;35163;48.878;18.040;2023-07-31T00:11:25;98183.75;;;19.09;90.39
49297;BME280;35163;48.878;18.040;2023-07-31T00:13:53;98184.56;;;19.10;90.24
49297;BME280;35163;48.878;18.040;2023-07-31T00:16:19;98192.75;;;19.05;90.59
49297;BME280;35163;48.878;18.040;2023-07-31T00:18:46;98194.84;;;19.00;90.84
49297;BME280;35163;48.878;18.040;2023-07-31T00:21:13;98201.16;;;18.97;90.45
49297;BME280;35163;48.878;18.040;2023-07-31T00:23:40;98191.22;;;18.89;90.18
49297;BME280;35163;48.878;18.040;2023-07-31T00:26:06;98194.25;;;18.83;89.44
49297;BME280;35163;48.878;18.040;2023-07-31T00:28:33;98192.78;;;18.79;89.56
49297;BME280;35163;48.878;18.040;2023-07-31T00:31:00;98196.38;;;18.78;89.89
49297;BME280;35163;48.878;18.040;2023-07-31T00:33:28;98186.81;;;18.77;89.91
49297;BME280;35163;48.878;18.040;2023-07-31T00:35:54;98185.03;;;18.77;90.16
49297;BME280;35163;48.878;18.040;2023-07-31T00:38:21;98185.03;;;18.77;89.99
49297;BME280;35163;48.878;18.040;2023-07-31T00:40:48;98181.69;;;18.75;90.20
49297;BME280;35163;48.878;18.040;2023-07-31T00:43:14;98167.66;;;18.76;89.43
49297;BME280;35163;48.878;18.040;2023-07-31T00:45:41;98161.38;;;18.79;88.92
49297;BME280;35163;48.878;18.040;2023-07-31T00:48:08;98161.25;;;18.80;88.71
49297;BME280;35163;48.878;18.040;2023-07-31T00:50:35;98152.38;;;18.83;87.88
49297;BME280;35163;48.878;18.040;2023-07-31T00:53:02;98153.91;;;18.86;87.58
49297;BME280;35163;48.878;18.040;2023-07-31T00:55:29;98148.44;;;18.89;87.54
49297;BME280;35163;48.878;18.040;2023-07-31T00:57:56;98158.94;;;18.89;87.35
49297;BME280;35163;48.878;18.040;2023-07-31T01:00:23;98166.78;;;18.89;87.24
49297;BME280;35163;48.878;18.040;2023-07-31T01:02:50;98169.50;;;18.87;87.41
49297;BME280;35163;48.878;18.040;2023-07-31T01:05:27;98168.06;;;18.83;87.55
49297;BME280;35163;48.878;18.040;2023-07-31T01:08:39;98176.16;;;18.80;88.15
49297;BME280;35163;48.878;18.040;2023-07-31T01:11:09;98173.13;;;18.73;87.64
49297;BME280;35163;48.878;18.040;2023-07-31T01:13:40;98168.91;;;18.70;87.56
49297;BME280;35163;48.878;18.040;2023-07-31T01:16:08;98178.75;;;18.67;87.85
49297;BME280;35163;48.878;18.040;2023-07-31T01:18:35;98167.66;;;18.63;88.11
49297;BME280;35163;48.878;18.040;2023-07-31T01:27:24;98164.75;;;18.55;88.34
49297;BME280;35163;48.878;18.040;2023-07-31T01:30:05;98164.31;;;18.48;89.09
49297;BME280;35163;48.878;18.040;2023-07-31T01:32:40;98164.31;;;18.48;88.87
49297;BME280;35163;48.878;18.040;2023-07-31T01:35:09;98160.97;;;18.46;88.62
49297;BME280;35163;48.878;18.040;2023-07-31T01:37:36;98163.47;;;18.48;88.36
49297;BME280;35163;48.878;18.040;2023-07-31T01:40:03;98167.25;;;18.43;88.92
49297;BME280;35163;48.878;18.040;2023-07-31T01:42:30;98163.91;;;18.41;88.83
49297;BME280;35163;48.878;18.040;2023-07-31T01:44:57;98171.75;;;18.41;89.01
49297;BME280;35163;48.878;18.040;2023-07-31T01:47:24;98169.13;;;18.41;88.97
49297;BME280;35163;48.878;18.040;2023-07-31T01:49:50;98175.22;;;18.42;88.24
49297;BME280;35163;48.878;18.040;2023-07-31T01:52:17;98182.75;;;18.46;88.28
49297;BME280;35163;48.878;18.040;2023-07-31T01:54:44;98167.47;;;18.40;88.20
49297;BME280;35163;48.878;18.040;2023-07-31T01:57:11;98164.66;;;18.43;88.13
49297;BME280;35163;48.878;18.040;2023-07-31T01:59:37;98178.25;;;18.49;87.32
49297;BME280;35163;48.878;18.040;2023-07-31T02:02:04;98184.63;;;18.44;87.99
49297;BME280;35163;48.878;18.040;2023-07-31T02:04:31;98186.72;;;18.39;86.50
49297;BME280;35163;48.878;18.040;2023-07-31T02:06:58;98182.88;;;18.32;87.20
49297;BME280;35163;48.878;18.040;2023-07-31T02:09:24;98189.03;;;18.31;87.39
49297;BME280;35163;48.878;18.040;2023-07-31T02:11:51;98194.88;;;18.34;87.33
49297;BME280;35163;48.878;18.040;2023-07-31T02:14:18;98189.88;;;18.31;86.81
49297;BME280;35163;48.878;18.040;2023-07-31T02:16:44;98194.47;;;18.28;86.98
49297;BME280;35163;48.878;18.040;2023-07-31T02:19:11;98195.41;;;18.27;86.63
49297;BME280;35163;48.878;18.040;2023-07-31T02:21:38;98200.13;;;18.34;81.33
49297;BME280;35163;48.878;18.040;2023-07-31T02:24:04;98213.09;;;18.36;83.20
49297;BME280;35163;48.878;18.040;2023-07-31T02:26:31;98227.16;;;18.35;85.04
49297;BME280;35163;48.878;18.040;2023-07-31T02:28:58;98225.66;;;18.31;85.89
49297;BME280;35163;48.878;18.040;2023-07-31T02:31:24;98216.97;;;18.30;84.70
49297;BME280;35163;48.878;18.040;2023-07-31T02:33:51;98224.91;;;18.29;84.73
49297;BME280;35163;48.878;18.040;2023-07-31T02:36:18;98219.78;;;18.27;83.62
49297;BME280;35163;48.878;18.040;2023-07-31T02:38:45;98215.94;;;18.33;82.31
49297;BME280;35163;48.878;18.040;2023-07-31T02:41:12;98226.41;;;18.33;81.36
49297;BME280;35163;48.878;18.040;2023-07-31T02:43:38;98230.28;;;18.40;80.03
49297;BME280;35163;48.878;18.040;2023-07-31T02:46:05;98227.25;;;18.46;79.31
49297;BME280;35163;48.878;18.040;2023-07-31T02:48:32;98234.88;;;18.50;79.08
49297;BME280;35163;48.878;18.040;2023-07-31T02:50:58;98234.50;;;18.56;77.32
49297;BME280;35163;48.878;18.040;2023-07-31T02:53:25;98240.66;;;18.55;76.91
49297;BME280;35163;48.878;18.040;2023-07-31T02:55:52;98233.66;;;18.55;77.35
49297;BME280;35163;48.878;18.040;2023-07-31T02:58:19;98237.94;;;18.56;77.37
49297;BME280;35163;48.878;18.040;2023-07-31T03:00:45;98242.34;;;18.56;77.37
49297;BME280;35163;48.878;18.040;2023-07-31T03:03:12;98236.16;;;18.57;78.89
49297;BME280;35163;48.878;18.040;2023-07-31T03:05:39;98240.88;;;18.52;80.51
49297;BME280;35163;48.878;18.040;2023-07-31T03:08:05;98231.53;;;18.48;80.75
49297;BME280;35163;48.878;18.040;2023-07-31T03:10:32;98233.44;;;18.45;81.12
49297;BME280;35163;48.878;18.040;2023-07-31T03:12:59;98236.34;;;18.41;81.58
49297;BME280;35163;48.878;18.040;2023-07-31T03:15:26;98234.56;;;18.41;81.70
49297;BME280;35163;48.878;18.040;2023-07-31T03:17:52;98237.41;;;18.38;81.45
49297;BME280;35163;48.878;18.040;2023-07-31T03:20:19;98235.75;;;18.37;79.70
49297;BME280;35163;48.878;18.040;2023-07-31T03:22:46;98236.66;;;18.36;80.31
49297;BME280;35163;48.878;18.040;2023-07-31T03:25:13;98239.28;;;18.36;80.97
49297;BME280;35163;48.878;18.040;2023-07-31T03:27:40;98237.81;;;18.32;80.05
49297;BME280;35163;48.878;18.040;2023-07-31T03:30:07;98239.47;;;18.33;79.95
49297;BME280;35163;48.878;18.040;2023-07-31T03:32:34;98244.41;;;18.25;81.33
49297;BME280;35163;48.878;18.040;2023-07-31T03:35:01;98235.69;;;18.24;80.25
49297;BME280;35163;48.878;18.040;2023-07-31T03:37:28;98236.34;;;18.28;78.13
49297;BME280;35163;48.878;18.040;2023-07-31T03:39:55;98236.34;;;18.28;77.92
49297;BME280;35163;48.878;18.040;2023-07-31T03:42:22;98231.22;;;18.26;78.40
49297;BME280;35163;48.878;18.040;2023-07-31T03:44:49;98238.53;;;18.34;75.96
49297;BME280;35163;48.878;18.040;2023-07-31T03:47:16;98241.69;;;18.39;73.61
49297;BME280;35163;48.878;18.040;2023-07-31T03:49:43;98237.09;;;18.43;73.09
49297;BME280;35163;48.878;18.040;2023-07-31T03:52:09;98234.47;;;18.43;73.66
49297;BME280;35163;48.878;18.040;2023-07-31T03:54:36;98232.28;;;18.37;74.28
49297;BME280;35163;48.878;18.040;2023-07-31T03:57:03;98234.16;;;18.34;74.37
49297;BME280;35163;48.878;18.040;2023-07-31T03:59:30;98225.28;;;18.37;73.08
49297;BME280;35163;48.878;18.040;2023-07-31T04:01:56;98235.53;;;18.40;72.17
49297;BME280;35163;48.878;18.040;2023-07-31T04:04:23;98236.25;;;18.42;72.13
49297;BME280;35163;48.878;18.040;2023-07-31T04:06:50;98233.63;;;18.42;71.35
49297;BME280;35163;48.878;18.040;2023-07-31T04:09:17;98229.13;;;18.44;71.23
49297;BME280;35163;48.878;18.040;2023-07-31T04:11:43;98242.00;;;18.48;71.43
49297;BME280;35163;48.878;18.040;2023-07-31T04:14:10;98242.97;;;18.46;72.12
49297;BME280;35163;48.878;18.040;2023-07-31T04:16:37;98247.34;;;18.46;73.83
49297;BME280;35163;48.878;18.040;2023-07-31T04:19:04;98253.09;;;18.38;75.17
49297;BME280;35163;48.878;18.040;2023-07-31T04:21:31;98247.97;;;18.37;76.00
49297;BME280;35163;48.878;18.040;2023-07-31T04:23:57;98258.44;;;18.37;76.24
49297;BME280;35163;48.878;18.040;2023-07-31T04:26:24;98255.72;;;18.38;76.87
49297;BME280;35163;48.878;18.040;2023-07-31T04:28:51;98262.28;;;18.31;76.23
49297;BME280;35163;48.878;18.040;2023-07-31T04:31:18;98261.06;;;18.37;76.69
49297;BME280;35163;48.878;18.040;2023-07-31T04:33:44;98258.34;;;18.38;76.68
49297;BME280;35163;48.878;18.040;2023-07-31T04:36:11;98256.84;;;18.34;77.13
49297;BME280;35163;48.878;18.040;2023-07-31T04:38:38;98257.06;;;18.31;78.04
49297;BME280;35163;48.878;18.040;2023-07-31T04:41:05;98255.19;;;18.33;78.08
49297;BME280;35163;48.878;18.040;2023-07-31T04:43:32;98252.56;;;18.33;78.52
49297;BME280;35163;48.878;18.040;2023-07-31T04:45:58;98243.59;;;18.37;78.40
49297;BME280;35163;48.878;18.040;2023-07-31T04:48:25;98255.81;;;18.37;78.84
49297;BME280;35163;48.878;18.040;2023-07-31T04:50:52;98260.09;;;18.38;78.10
49297;BME280;35163;48.878;18.040;2023-07-31T04:53:18;98249.53;;;18.39;79.60
49297;BME280;35163;48.878;18.040;2023-07-31T04:55:45;98260.75;;;18.41;79.85
49297;BME280;35163;48.878;18.040;2023-07-31T04:58:12;98253.75;;;18.42;78.71
49297;BME280;35163;48.878;18.040;2023-07-31T05:00:38;98247.78;;;18.53;79.92
49297;BME280;35163;48.878;18.040;2023-07-31T05:03:05;98252.63;;;18.59;78.75
49297;BME280;35163;48.878;18.040;2023-07-31T05:05:33;98261.91;;;18.63;78.33
49297;BME280;35163;48.878;18.040;2023-07-31T05:08:00;98257.31;;;18.67;78.65
49297;BME280;35163;48.878;18.040;2023-07-31T05:10:27;98263.19;;;18.70;78.75
49297;BME280;35163;48.878;18.040;2023-07-31T05:12:53;98267.19;;;18.76;78.21
49297;BME280;35163;48.878;18.040;2023-07-31T05:15:20;98249.38;;;18.81;77.92
49297;BME280;35163;48.878;18.040;2023-07-31T05:17:47;98244.84;;;18.83;78.27
49297;BME280;35163;48.878;18.040;2023-07-31T05:20:14;98249.38;;;18.81;78.96
49297;BME280;35163;48.878;18.040;2023-07-31T05:22:41;98258.56;;;18.87;78.13
49297;BME280;35163;48.878;18.040;2023-07-31T05:25:08;98255.66;;;18.92;78.24
49297;BME280;35163;48.878;18.040;2023-07-31T05:27:35;98260.03;;;18.91;79.20
49297;BME280;35163;48.878;18.040;2023-07-31T05:30:02;98256.06;;;18.99;78.15
49297;BME280;35163;48.878;18.040;2023-07-31T05:32:28;98254.69;;;19.06;77.08
49297;BME280;35163;48.878;18.040;2023-07-31T05:34:55;98257.22;;;19.08;77.46
49297;BME280;35163;48.878;18.040;2023-07-31T05:37:22;98263.72;;;19.15;76.71
49297;BME280;35163;48.878;18.040;2023-07-31T05:39:49;98265.47;;;19.27;77.05
49297;BME280;35163;48.878;18.040;2023-07-31T05:42:16;98272.91;;;19.47;74.67
49297;BME280;35163;48.878;18.040;2023-07-31T05:44:42;98264.44;;;19.67;73.50
49297;BME280;35163;48.878;18.040;2023-07-31T05:47:10;98277.91;;;19.87;73.13
49297;BME280;35163;48.878;18.040;2023-07-31T05:49:37;98284.00;;;20.12;72.97
49297;BME280;35163;48.878;18.040;2023-07-31T05:52:04;98288.88;;;20.42;71.97
49297;BME280;35163;48.878;18.040;2023-07-31T05:54:31;98287.03;;;20.67;70.89
49297;BME280;35163;48.878;18.040;2023-07-31T05:56:58;98278.00;;;20.82;69.24
49297;BME280;35163;48.878;18.040;2023-07-31T05:59:25;98284.13;;;21.06;69.13
49297;BME280;35163;48.878;18.040;2023-07-31T06:01:52;98284.97;;;21.29;67.43
49297;BME280;35163;48.878;18.040;2023-07-31T06:04:19;98282.19;;;21.54;63.70
49297;BME280;35163;48.878;18.040;2023-07-31T06:06:50;98284.56;;;21.80;65.41
49297;BME280;35163;48.878;18.040;2023-07-31T06:09:17;98284.50;;;22.03;62.87
49297;BME280;35163;48.878;18.040;2023-07-31T06:11:43;98285.38;;;22.25;61.49
49297;BME280;35163;48.878;18.040;2023-07-31T06:14:10;98295.09;;;22.45;61.98
49297;BME280;35163;48.878;18.040;2023-07-31T06:16:37;98309.25;;;22.66;59.52
49297;BME280;35163;48.878;18.040;2023-07-31T06:19:04;98291.88;;;22.85;59.89
49297;BME280;35163;48.878;18.040;2023-07-31T06:21:31;98292.50;;;22.98;53.94
49297;BME280;35163;48.878;18.040;2023-07-31T06:23:57;98288.28;;;23.17;55.58
49297;BME280;35163;48.878;18.040;2023-07-31T06:26:24;98296.28;;;23.37;55.48
49297;BME280;35163;48.878;18.040;2023-07-31T06:28:51;98295.66;;;23.54;54.47
49297;BME280;35163;48.878;18.040;2023-07-31T06:31:17;98289.19;;;23.69;53.21
49297;BME280;35163;48.878;18.040;2023-07-31T06:33:47;98291.16;;;23.86;52.36
49297;BME280;35163;48.878;18.040;2023-07-31T06:36:13;98283.66;;;24.01;51.42
49297;BME280;35163;48.878;18.040;2023-07-31T06:38:40;98282.72;;;24.22;51.50
49297;BME280;35163;48.878;18.040;2023-07-31T06:41:07;98274.78;;;24.42;50.61
49297;BME280;35163;48.878;18.040;2023-07-31T06:43:33;98279.50;;;24.58;50.15
49297;BME280;35163;48.878;18.040;2023-07-31T06:46:07;98282.63;;;24.82;50.45
49297;BME280;35163;48.878;18.040;2023-07-31T06:48:34;98286.06;;;25.02;49.12
49297;BME280;35163;48.878;18.040;2023-07-31T06:51:01;98282.38;;;25.23;48.31
49297;BME280;35163;48.878;18.040;2023-07-31T06:53:28;98282.44;;;25.41;47.54
49297;BME280;35163;48.878;18.040;2023-07-31T06:55:55;98274.19;;;25.44;46.04
49297;BME280;35163;48.878;18.040;2023-07-31T06:58:21;98280.94;;;25.57;46.47
49297;BME280;35163;48.878;18.040;2023-07-31T07:00:48;98285.00;;;25.79;46.60
49297;BME280;35163;48.878;18.040;2023-07-31T07:03:18;98276.94;;;25.99;47.64
49297;BME280;35163;48.878;18.040;2023-07-31T07:05:45;98285.19;;;26.14;46.22
49297;BME280;35163;48.878;18.040;2023-07-31T07:08:12;98284.03;;;26.17;45.27
49297;BME280;35163;48.878;18.040;2023-07-31T07:10:39;98288.09;;;26.29;44.12
49297;BME280;35163;48.878;18.040;2023-07-31T07:13:05;98285.28;;;26.41;45.01
49297;BME280;35163;48.878;18.040;2023-07-31T07:15:32;98278.34;;;26.48;44.19
49297;BME280;35163;48.878;18.040;2023-07-31T07:17:59;98280.56;;;26.53;44.35
49297;BME280;35163;48.878;18.040;2023-07-31T07:20:27;98276.63;;;26.65;43.23
49297;BME280;35163;48.878;18.040;2023-07-31T07:22:54;98279.66;;;26.71;44.16
49297;BME280;35163;48.878;18.040;2023-07-31T07:25:21;98279.53;;;26.80;42.28
49297;BME280;35163;48.878;18.040;2023-07-31T07:27:47;98282.06;;;26.82;42.83
49297;BME280;35163;48.878;18.040;2023-07-31T07:30:14;98286.72;;;26.88;42.11
49297;BME280;35163;48.878;18.040;2023-07-31T07:32:41;98281.09;;;26.91;43.06
49297;BME280;35163;48.878;18.040;2023-07-31T07:35:08;98279.13;;;26.93;42.66
49297;BME280;35163;48.878;18.040;2023-07-31T07:37:34;98286.25;;;26.93;42.40
49297;BME280;35163;48.878;18.040;2023-07-31T07:40:01;98284.63;;;27.00;41.61
49297;BME280;35163;48.878;18.040;2023-07-31T07:42:28;98287.19;;;27.10;42.51
49297;BME280;35163;48.878;18.040;2023-07-31T07:44:55;98284.41;;;27.20;43.22
49297;BME280;35163;48.878;18.040;2023-07-31T07:47:22;98284.25;;;27.22;42.74
49297;BME280;35163;48.878;18.040;2023-07-31T07:49:48;98277.66;;;27.26;41.72
49297;BME280;35163;48.878;18.040;2023-07-31T07:52:19;98279.59;;;27.15;40.44
49297;BME280;35163;48.878;18.040;2023-07-31T07:54:45;98276.16;;;27.23;42.27
49297;BME280;35163;48.878;18.040;2023-07-31T07:57:12;98279.63;;;27.24;41.14
49297;BME280;35163;48.878;18.040;2023-07-31T07:59:39;98275.19;;;27.33;42.40
49297;BME280;35163;48.878;18.040;2023-07-31T08:02:05;98286.66;;;27.41;41.79
49297;BME280;35163;48.878;18.040;2023-07-31T08:04:32;98284.88;;;27.50;42.96
49297;BME280;35163;48.878;18.040;2023-07-31T08:06:59;98286.03;;;27.56;41.52
49297;BME280;35163;48.878;18.040;2023-07-31T08:09:25;98285.72;;;27.59;43.00
49297;BME280;35163;48.878;18.040;2023-07-31T08:11:52;98279.06;;;27.55;41.85
49297;BME280;35163;48.878;18.040;2023-07-31T08:14:19;98279.78;;;27.65;41.65
49297;BME280;35163;48.878;18.040;2023-07-31T08:16:46;98277.78;;;27.68;40.03
49297;BME280;35163;48.878;18.040;2023-07-31T08:19:12;98287.94;;;27.72;41.38
49297;BME280;35163;48.878;18.040;2023-07-31T08:21:39;98283.47;;;27.73;41.28
49297;BME280;35163;48.878;18.040;2023-07-31T08:24:06;98289.09;;;27.70;41.25
49297;BME280;35163;48.878;18.040;2023-07-31T08:26:34;98283.78;;;27.70;41.48
49297;BME280;35163;48.878;18.040;2023-07-31T08:29:01;98291.28;;;27.74;41.51
49297;BME280;35163;48.878;18.040;2023-07-31T08:31:27;98289.13;;;27.78;41.11
49297;BME280;35163;48.878;18.040;2023-07-31T08:33:56;98290.44;;;27.74;40.05
49297;BME280;35163;48.878;18.040;2023-07-31T08:36:23;98289.88;;;27.62;40.57
49297;BME280;35163;48.878;18.040;2023-07-31T08:38:49;98283.84;;;27.43;39.54
49297;BME280;35163;48.878;18.040;2023-07-31T08:41:16;98289.16;;;27.43;40.12
49297;BME280;35163;48.878;18.040;2023-07-31T08:43:45;98291.13;;;27.41;40.31
49297;BME280;35163;48.878;18.040;2023-07-31T08:46:12;98287.97;;;27.37;40.45
49297;BME280;35163;48.878;18.040;2023-07-31T08:48:42;98282.66;;;27.37;40.37
49297;BME280;35163;48.878;18.040;2023-07-31T08:51:09;98281.34;;;27.33;40.54
49297;BME280;35163;48.878;18.040;2023-07-31T08:53:36;98284.00;;;27.33;40.05
49297;BME280;35163;48.878;18.040;2023-07-31T08:56:03;98266.03;;;27.27;39.39
49297;BME280;35163;48.878;18.040;2023-07-31T08:58:31;98273.34;;;27.25;39.62
49297;BME280;35163;48.878;18.040;2023-07-31T09:01:03;98266.88;;;27.27;40.22
49297;BME280;35163;48.878;18.040;2023-07-31T09:03:33;98272.00;;;27.29;40.33
49297;BME280;35163;48.878;18.040;2023-07-31T09:06:02;98271.31;;;27.18;40.12
49297;BME280;35163;48.878;18.040;2023-07-31T09:08:31;98268.31;;;27.13;40.21
49297;BME280;35163;48.878;18.040;2023-07-31T09:11:02;98272.16;;;27.19;40.10
49297;BME280;35163;48.878;18.040;2023-07-31T09:13:30;98269.34;;;27.21;39.99
49297;BME280;35163;48.878;18.040;2023-07-31T09:15:58;98264.19;;;27.19;38.83
49297;BME280;35163;48.878;18.040;2023-07-31T09:18:25;98263.34;;;27.18;38.94
49297;BME280;35163;48.878;18.040;2023-07-31T09:21:04;98267.34;;;27.14;38.98
49297;BME280;35163;48.878;18.040;2023-07-31T09:23:45;98261.50;;;27.11;38.04
49297;BME280;35163;48.878;18.040;2023-07-31T09:26:28;98263.31;;;27.10;38.64
49297;BME280;35163;48.878;18.040;2023-07-31T09:28:57;98258.34;;;27.07;37.73
49297;BME280;35163;48.878;18.040;2023-07-31T09:31:39;98249.16;;;27.01;38.33
49297;BME280;35163;48.878;18.040;2023-07-31T09:34:08;98250.63;;;26.96;39.24
49297;BME280;35163;48.878;18.040;2023-07-31T09:39:13;98254.94;;;26.97;39.56
49297;BME280;35163;48.878;18.040;2023-07-31T09:41:43;98252.13;;;26.98;39.19
49297;BME280;35163;48.878;18.040;2023-07-31T09:44:11;98246.47;;;26.93;38.19
49297;BME280;35163;48.878;18.040;2023-07-31T09:46:38;98252.63;;;26.93;38.42
49297;BME280;35163;48.878;18.040;2023-07-31T09:49:12;98250.94;;;26.92;39.42
49297;BME280;35163;48.878;18.040;2023-07-31T09:51:41;98248.59;;;26.89;39.14
49297;BME280;35163;48.878;18.040;2023-07-31T09:54:13;98248.59;;;26.89;39.92
49297;BME280;35163;48.878;18.040;2023-07-31T09:56:44;98241.81;;;26.87;39.55
49297;BME280;35163;48.878;18.040;2023-07-31T09:59:16;98238.47;;;26.85;39.45
49297;BME280;35163;48.878;18.040;2023-07-31T10:01:46;98234.81;;;26.86;40.77
49297;BME280;35163;48.878;18.040;2023-07-31T10:04:13;98234.81;;;26.86;39.78
49297;BME280;35163;48.878;18.040;2023-07-31T10:06:42;98246.09;;;26.88;40.15
49297;BME280;35163;48.878;18.040;2023-07-31T10:09:12;98240.44;;;26.83;38.39
49297;BME280;35163;48.878;18.040;2023-07-31T10:11:46;98239.94;;;26.79;38.18
49297;BME280;35163;48.878;18.040;2023-07-31T10:14:19;98241.94;;;26.77;38.78
49297;BME280;35163;48.878;18.040;2023-07-31T10:16:47;98235.13;;;26.83;39.41
49297;BME280;35163;48.878;18.040;2023-07-31T10:19:14;98230.00;;;26.81;37.70
49297;BME280;35163;48.878;18.040;2023-07-31T10:21:42;98231.19;;;26.87;39.01
49297;BME280;35163;48.878;18.040;2023-07-31T10:24:09;98231.53;;;26.84;37.36
49297;BME280;35163;48.878;18.040;2023-07-31T10:26:37;98224.69;;;26.81;37.87
49297;BME280;35163;48.878;18.040;2023-07-31T10:29:06;98237.94;;;26.81;37.74
49297;BME280;35163;48.878;18.040;2023-07-31T10:31:34;98230.63;;;26.75;36.98
49297;BME280;35163;48.878;18.040;2023-07-31T10:34:01;98227.66;;;26.78;37.44
49297;BME280;35163;48.878;18.040;2023-07-31T10:36:29;98229.63;;;26.76;38.14
49297;BME280;35163;48.878;18.040;2023-07-31T10:38:56;98219.88;;;26.76;37.21
49297;BME280;35163;48.878;18.040;2023-07-31T10:41:30;98223.50;;;26.75;37.60
49297;BME280;35163;48.878;18.040;2023-07-31T10:44:01;98217.06;;;26.78;37.23
49297;BME280;35163;48.878;18.040;2023-07-31T10:46:28;98217.06;;;26.78;38.02
49297;BME280;35163;48.878;18.040;2023-07-31T10:49:00;98211.09;;;26.76;36.67
49297;BME280;35163;48.878;18.040;2023-07-31T10:51:36;98219.50;;;26.71;35.80
49297;BME280;35163;48.878;18.040;2023-07-31T10:54:20;98217.72;;;26.72;36.94
49297;BME280;35163;48.878;18.040;2023-07-31T10:56:50;98216.19;;;26.69;36.53
49297;BME280;35163;48.878;18.040;2023-07-31T10:59:17;98205.41;;;26.71;37.64
49297;BME280;35163;48.878;18.040;2023-07-31T11:01:55;98205.41;;;26.71;36.53
49297;BME280;35163;48.878;18.040;2023-07-31T11:04:28;98202.72;;;26.62;34.17
49297;BME280;35163;48.878;18.040;2023-07-31T11:07:01;98199.06;;;26.63;36.53
49297;BME280;35163;48.878;18.040;2023-07-31T11:09:31;98201.59;;;26.65;37.76
49297;BME280;35163;48.878;18.040;2023-07-31T11:12:00;98204.25;;;26.65;37.29
49297;BME280;35163;48.878;18.040;2023-07-31T11:14:27;98200.06;;;26.62;35.89
49297;BME280;35163;48.878;18.040;2023-07-31T11:16:54;98194.75;;;26.54;34.61
49297;BME280;35163;48.878;18.040;2023-07-31T11:19:24;98196.38;;;26.55;36.30
49297;BME280;35163;48.878;18.040;2023-07-31T11:21:52;98196.38;;;26.55;36.44
49297;BME280;35163;48.878;18.040;2023-07-31T11:24:20;98186.09;;;26.52;35.83
49297;BME280;35163;48.878;18.040;2023-07-31T11:26:51;98183.28;;;26.53;36.72
49297;BME280;35163;48.878;18.040;2023-07-31T11:29:19;98184.78;;;26.48;35.67
49297;BME280;35163;48.878;18.040;2023-07-31T11:31:46;98182.25;;;26.46;36.01
49297;BME280;35163;48.878;18.040;2023-07-31T11:34:14;98178.78;;;26.45;36.80
49297;BME280;35163;48.878;18.040;2023-07-31T11:36:52;98182.25;;;26.46;36.89
49297;BME280;35163;48.878;18.040;2023-07-31T11:39:19;98176.50;;;26.51;37.18
49297;BME280;35163;48.878;18.040;2023-07-31T11:41:46;98172.34;;;26.48;37.79
49297;BME280;35163;48.878;18.040;2023-07-31T11:44:12;98174.81;;;26.50;37.83
49297;BME280;35163;48.878;18.040;2023-07-31T11:46:56;98166.22;;;26.48;36.35
49297;BME280;35163;48.878;18.040;2023-07-31T11:49:23;98171.38;;;26.49;37.91
49297;BME280;35163;48.878;18.040;2023-07-31T11:51:50;98166.22;;;26.48;37.12
49297;BME280;35163;48.878;18.040;2023-07-31T11:54:17;98170.53;;;26.49;36.80
49297;BME280;35163;48.878;18.040;2023-07-31T11:56:44;98164.38;;;26.48;36.98
49297;BME280;35163;48.878;18.040;2023-07-31T11:59:11;98166.06;;;26.49;37.67
49297;BME280;35163;48.878;18.040;2023-07-31T12:01:39;98161.56;;;26.50;36.11
49297;BME280;35163;48.878;18.040;2023-07-31T12:04:06;98149.31;;;26.49;36.36
49297;BME280;35163;48.878;18.040;2023-07-31T12:06:36;98145.16;;;26.46;35.45
49297;BME280;35163;48.878;18.040;2023-07-31T12:09:04;98145.03;;;26.48;35.88
49297;BME280;35163;48.878;18.040;2023-07-31T12:11:44;98153.63;;;26.50;37.11
49297;BME280;35163;48.878;18.040;2023-07-31T12:14:24;98144.53;;;26.52;37.66
49297;BME280;35163;48.878;18.040;2023-07-31T12:17:04;98138.41;;;26.52;37.66
49297;BME280;35163;48.878;18.040;2023-07-31T12:19:31;98133.09;;;26.52;37.89
49297;BME280;35163;48.878;18.040;2023-07-31T12:22:00;98131.81;;;26.56;37.45
49297;BME280;35163;48.878;18.040;2023-07-31T12:24:27;98131.66;;;26.57;37.55
49297;BME280;35163;48.878;18.040;2023-07-31T12:26:54;98121.84;;;26.58;37.61
49297;BME280;35163;48.878;18.040;2023-07-31T12:29:21;98121.72;;;26.60;37.60
49297;BME280;35163;48.878;18.040;2023-07-31T12:31:48;98122.38;;;26.62;36.63
49297;BME280;35163;48.878;18.040;2023-07-31T12:34:20;98113.28;;;26.64;36.63
49297;BME280;35163;48.878;18.040;2023-07-31T12:36:49;98111.47;;;26.65;37.25
49297;BME280;35163;48.878;18.040;2023-07-31T12:39:17;98110.63;;;26.64;37.29
49297;BME280;35163;48.878;18.040;2023-07-31T12:41:43;98120.91;;;26.67;37.70
49297;BME280;35163;48.878;18.040;2023-07-31T12:44:10;98105.84;;;26.68;37.77
49297;BME280;35163;48.878;18.040;2023-07-31T12:46:37;98111.16;;;26.68;37.64
49297;BME280;35163;48.878;18.040;2023-07-31T12:49:04;98101.34;;;26.68;37.30
49297;BME280;35163;48.878;18.040;2023-07-31T12:51:31;98108.00;;;26.73;36.87
49297;BME280;35163;48.878;18.040;2023-07-31T12:53:57;98093.75;;;26.74;36.96
49297;BME280;35163;48.878;18.040;2023-07-31T12:56:24;98087.13;;;26.69;36.76
49297;BME280;35163;48.878;18.040;2023-07-31T12:58:51;98087.97;;;26.70;37.39
49297;BME280;35163;48.878;18.040;2023-07-31T13:01:18;98078.66;;;26.66;37.04
49297;BME280;35163;48.878;18.040;2023-07-31T13:03:44;98078.50;;;26.67;37.21